sensor_id;sensor_type;location;lat;lon;timestamp;temperature;humidity
69418;DHT22;56610;48.872;2.400;2023-04-24T00:00:09;13.20;99.90
69418;DHT22;56610;48.872;2.400;2023-04-24T00:02:35;13.20;99.90
69418;DHT22;56610;48.872;2.400;2023-04-24T00:05:04;13.40;99.90
69418;DHT22;56610;48.872;2.400;2023-04-24T00:07:30;13.60;99.90
69418;DHT22;56610;48.872;2.400;2023-04-24T00:09:56;13.60;99.90
69418;DHT22;56610;48.872;2.400;2023-04-24T00:12:22;13.30;99.90
69418;DHT22;56610;48.872;2.400;2023-04-24T00:14:47;13.20;99.90
69418;DHT22;56610;48.872;2.400;2023-04-24T00:17:13;13.10;99.90
69418;DHT22;56610;48.872;2.400;2023-04-24T00:19:38;13.00;99.90
69418;DHT22;56610;48.872;2.400;2023-04-24T00:22:25;13.00;99.90
69418;DHT22;56610;48.872;2.400;2023-04-24T00:24:51;13.00;99.90
69418;DHT22;56610;48.872;2.400;2023-04-24T00:27:16;12.90;99.90
69418;DHT22;56610;48.872;2.400;2023-04-24T00:29:42;12.90;99.90
69418;DHT22;56610;48.872;2.400;2023-04-24T00:32:07;12.80;99.90
69418;DHT22;56610;48.872;2.400;2023-04-24T00:34:33;12.80;99.90
69418;DHT22;56610;48.872;2.400;2023-04-24T00:36:58;12.70;99.90
69418;DHT22;56610;48.872;2.400;2023-04-24T00:39:24;12.60;99.90
69418;DHT22;56610;48.872;2.400;2023-04-24T00:41:50;12.50;99.90
69418;DHT22;56610;48.872;2.400;2023-04-24T00:44:16;12.60;99.90
69418;DHT22;56610;48.872;2.400;2023-04-24T00:46:42;12.60;99.90
69418;DHT22;56610;48.872;2.400;2023-04-24T00:49:08;12.60;99.90
69418;DHT22;56610;48.872;2.400;2023-04-24T00:51:34;12.60;99.90
69418;DHT22;56610;48.872;2.400;2023-04-24T00:54:00;12.60;99.90
69418;DHT22;56610;48.872;2.400;2023-04-24T00:56:29;12.70;99.90
69418;DHT22;56610;48.872;2.400;2023-04-24T00:58:55;12.70;99.90
69418;DHT22;56610;48.872;2.400;2023-04-24T01:01:22;12.80;99.90
69418;DHT22;56610;48.872;2.400;2023-04-24T01:03:49;12.70;99.90
69418;DHT22;56610;48.872;2.400;2023-04-24T01:06:16;12.70;99.90
69418;DHT22;56610;48.872;2.400;2023-04-24T01:08:42;12.60;99.90
69418;DHT22;56610;48.872;2.400;2023-04-24T01:11:08;12.70;99.90
69418;DHT22;56610;48.872;2.400;2023-04-24T01:13:34;12.70;99.90
69418;DHT22;56610;48.872;2.400;2023-04-24T01:18:46;13.00;99.90
69418;DHT22;56610;48.872;2.400;2023-04-24T01:21:14;13.10;99.90
69418;DHT22;56610;48.872;2.400;2023-04-24T01:23:43;13.00;99.90
69418;DHT22;56610;48.872;2.400;2023-04-24T01:26:08;13.10;99.90
69418;DHT22;56610;48.872;2.400;2023-04-24T01:28:34;13.00;99.90
69418;DHT22;56610;48.872;2.400;2023-04-24T01:31:00;12.90;99.90
69418;DHT22;56610;48.872;2.400;2023-04-24T01:33:25;13.00;99.90
69418;DHT22;56610;48.872;2.400;2023-04-24T01:35:51;12.90;99.90
69418;DHT22;56610;48.872;2.400;2023-04-24T01:38:17;13.10;99.90
69418;DHT22;56610;48.872;2.400;2023-04-24T01:40:43;13.10;99.90
69418;DHT22;56610;48.872;2.400;2023-04-24T01:43:08;13.20;99.90
69418;DHT22;56610;48.872;2.400;2023-04-24T01:45:34;13.10;99.90
69418;DHT22;56610;48.872;2.400;2023-04-24T01:48:00;13.10;99.90
69418;DHT22;56610;48.872;2.400;2023-04-24T01:50:26;13.10;99.90
69418;DHT22;56610;48.872;2.400;2023-04-24T01:52:52;13.30;99.90
69418;DHT22;56610;48.872;2.400;2023-04-24T01:55:17;13.50;99.90
69418;DHT22;56610;48.872;2.400;2023-04-24T01:57:43;13.40;99.90
69418;DHT22;56610;48.872;2.400;2023-04-24T02:00:09;13.20;99.90
69418;DHT22;56610;48.872;2.400;2023-04-24T02:02:36;13.10;99.90
69418;DHT22;56610;48.872;2.400;2023-04-24T02:05:02;13.00;99.90
69418;DHT22;56610;48.872;2.400;2023-04-24T02:07:28;13.10;99.90
69418;DHT22;56610;48.872;2.400;2023-04-24T02:09:53;13.20;99.90
69418;DHT22;56610;48.872;2.400;2023-04-24T02:12:20;13.10;99.90
69418;DHT22;56610;48.872;2.400;2023-04-24T02:14:46;13.10;99.90
69418;DHT22;56610;48.872;2.400;2023-04-24T02:17:11;13.00;99.90
69418;DHT22;56610;48.872;2.400;2023-04-24T02:19:38;12.80;99.90
69418;DHT22;56610;48.872;2.400;2023-04-24T02:22:04;12.70;99.90
69418;DHT22;56610;48.872;2.400;2023-04-24T02:24:30;12.60;99.90
69418;DHT22;56610;48.872;2.400;2023-04-24T02:26:55;12.40;99.90
69418;DHT22;56610;48.872;2.400;2023-04-24T02:29:21;12.50;99.90
69418;DHT22;56610;48.872;2.400;2023-04-24T02:31:46;12.60;99.90
69418;DHT22;56610;48.872;2.400;2023-04-24T02:34:12;12.60;99.90
69418;DHT22;56610;48.872;2.400;2023-04-24T02:36:37;12.40;99.90
69418;DHT22;56610;48.872;2.400;2023-04-24T02:39:03;12.40;99.90
69418;DHT22;56610;48.872;2.400;2023-04-24T02:41:29;12.30;99.90
69418;DHT22;56610;48.872;2.400;2023-04-24T02:43:57;12.30;99.90
69418;DHT22;56610;48.872;2.400;2023-04-24T02:46:23;12.40;99.90
69418;DHT22;56610;48.872;2.400;2023-04-24T02:48:49;12.40;99.90
69418;DHT22;56610;48.872;2.400;2023-04-24T02:51:14;12.40;99.90
69418;DHT22;56610;48.872;2.400;2023-04-24T02:53:40;12.40;99.90
69418;DHT22;56610;48.872;2.400;2023-04-24T02:56:05;12.40;99.90
69418;DHT22;56610;48.872;2.400;2023-04-24T02:58:31;12.40;99.90
69418;DHT22;56610;48.872;2.400;2023-04-24T03:00:57;12.50;99.90
69418;DHT22;56610;48.872;2.400;2023-04-24T03:03:22;12.60;99.90
69418;DHT22;56610;48.872;2.400;2023-04-24T03:05:49;12.50;99.90
69418;DHT22;56610;48.872;2.400;2023-04-24T03:08:14;12.50;99.90
69418;DHT22;56610;48.872;2.400;2023-04-24T03:10:40;12.40;99.90
69418;DHT22;56610;48.872;2.400;2023-04-24T03:13:05;12.30;99.90
69418;DHT22;56610;48.872;2.400;2023-04-24T03:15:31;12.40;99.90
69418;DHT22;56610;48.872;2.400;2023-04-24T03:17:57;12.60;99.90
69418;DHT22;56610;48.872;2.400;2023-04-24T03:20:23;12.70;99.90
69418;DHT22;56610;48.872;2.400;2023-04-24T03:22:48;12.80;99.90
69418;DHT22;56610;48.872;2.400;2023-04-24T03:25:14;12.80;99.90
69418;DHT22;56610;48.872;2.400;2023-04-24T03:27:39;13.00;99.90
69418;DHT22;56610;48.872;2.400;2023-04-24T03:30:07;12.80;99.90
69418;DHT22;56610;48.872;2.400;2023-04-24T03:32:32;12.80;99.90
69418;DHT22;56610;48.872;2.400;2023-04-24T03:34:58;12.70;99.90
69418;DHT22;56610;48.872;2.400;2023-04-24T03:37:24;12.90;99.90
69418;DHT22;56610;48.872;2.400;2023-04-24T03:39:49;13.10;99.90
69418;DHT22;56610;48.872;2.400;2023-04-24T03:42:15;13.00;99.90
69418;DHT22;56610;48.872;2.400;2023-04-24T03:44:41;12.80;99.90
69418;DHT22;56610;48.872;2.400;2023-04-24T03:47:06;12.60;99.90
69418;DHT22;56610;48.872;2.400;2023-04-24T03:49:32;12.50;99.90
69418;DHT22;56610;48.872;2.400;2023-04-24T03:51:58;12.60;99.90
69418;DHT22;56610;48.872;2.400;2023-04-24T03:54:24;12.50;99.90
69418;DHT22;56610;48.872;2.400;2023-04-24T03:56:49;12.50;99.90
69418;DHT22;56610;48.872;2.400;2023-04-24T03:59:15;12.50;99.90
69418;DHT22;56610;48.872;2.400;2023-04-24T04:01:40;12.40;99.90
69418;DHT22;56610;48.872;2.400;2023-04-24T04:04:06;12.30;99.90
69418;DHT22;56610;48.872;2.400;2023-04-24T04:06:33;12.20;99.90
69418;DHT22;56610;48.872;2.400;2023-04-24T04:08:58;12.20;99.90
69418;DHT22;56610;48.872;2.400;2023-04-24T04:11:24;12.20;99.90
69418;DHT22;56610;48.872;2.400;2023-04-24T04:13:50;12.10;99.90
69418;DHT22;56610;48.872;2.400;2023-04-24T04:16:16;12.00;99.90
69418;DHT22;56610;48.872;2.400;2023-04-24T04:18:44;12.00;99.90
69418;DHT22;56610;48.872;2.400;2023-04-24T04:21:10;12.20;99.90
69418;DHT22;56610;48.872;2.400;2023-04-24T04:23:36;12.30;99.90
69418;DHT22;56610;48.872;2.400;2023-04-24T04:26:02;12.40;99.90
69418;DHT22;56610;48.872;2.400;2023-04-24T04:28:29;12.50;99.90
69418;DHT22;56610;48.872;2.400;2023-04-24T04:30:56;12.60;99.90
69418;DHT22;56610;48.872;2.400;2023-04-24T04:33:25;12.60;99.90
69418;DHT22;56610;48.872;2.400;2023-04-24T04:35:51;12.70;99.90
69418;DHT22;56610;48.872;2.400;2023-04-24T04:38:22;12.60;99.90
69418;DHT22;56610;48.872;2.400;2023-04-24T04:40:48;12.70;99.90
69418;DHT22;56610;48.872;2.400;2023-04-24T04:43:13;12.60;99.90
69418;DHT22;56610;48.872;2.400;2023-04-24T04:45:40;12.40;99.90
69418;DHT22;56610;48.872;2.400;2023-04-24T04:48:08;12.40;99.90
69418;DHT22;56610;48.872;2.400;2023-04-24T04:50:35;12.30;99.90
69418;DHT22;56610;48.872;2.400;2023-04-24T04:53:00;12.30;99.90
69418;DHT22;56610;48.872;2.400;2023-04-24T04:55:26;12.30;99.90
69418;DHT22;56610;48.872;2.400;2023-04-24T04:57:51;12.30;99.90
69418;DHT22;56610;48.872;2.400;2023-04-24T05:03:04;12.50;99.90
69418;DHT22;56610;48.872;2.400;2023-04-24T05:05:30;12.70;99.90
69418;DHT22;56610;48.872;2.400;2023-04-24T05:07:56;12.70;99.90
69418;DHT22;56610;48.872;2.400;2023-04-24T05:10:21;12.50;99.90
69418;DHT22;56610;48.872;2.400;2023-04-24T05:12:47;12.70;99.90
69418;DHT22;56610;48.872;2.400;2023-04-24T05:15:12;12.80;99.90
69418;DHT22;56610;48.872;2.400;2023-04-24T05:17:38;12.90;99.90
69418;DHT22;56610;48.872;2.400;2023-04-24T05:20:05;12.80;99.90
69418;DHT22;56610;48.872;2.400;2023-04-24T05:22:32;12.90;99.90
69418;DHT22;56610;48.872;2.400;2023-04-24T05:24:57;13.00;99.90
69418;DHT22;56610;48.872;2.400;2023-04-24T05:27:24;12.80;99.90
69418;DHT22;56610;48.872;2.400;2023-04-24T05:29:50;13.00;99.90
69418;DHT22;56610;48.872;2.400;2023-04-24T05:32:16;13.00;99.90
69418;DHT22;56610;48.872;2.400;2023-04-24T05:34:41;12.90;99.90
69418;DHT22;56610;48.872;2.400;2023-04-24T05:37:07;12.80;99.90
69418;DHT22;56610;48.872;2.400;2023-04-24T05:39:35;12.70;99.90
69418;DHT22;56610;48.872;2.400;2023-04-24T05:42:01;12.70;99.90
69418;DHT22;56610;48.872;2.400;2023-04-24T05:44:27;12.60;99.90
69418;DHT22;56610;48.872;2.400;2023-04-24T05:46:53;12.90;99.90
69418;DHT22;56610;48.872;2.400;2023-04-24T05:49:20;12.70;99.90
69418;DHT22;56610;48.872;2.400;2023-04-24T05:51:46;12.70;99.90
69418;DHT22;56610;48.872;2.400;2023-04-24T05:54:11;12.70;99.90
69418;DHT22;56610;48.872;2.400;2023-04-24T05:56:38;12.90;99.90
69418;DHT22;56610;48.872;2.400;2023-04-24T05:59:03;13.10;99.90
69418;DHT22;56610;48.872;2.400;2023-04-24T06:01:29;13.10;99.90
69418;DHT22;56610;48.872;2.400;2023-04-24T06:03:55;13.20;99.90
69418;DHT22;56610;48.872;2.400;2023-04-24T06:06:20;13.30;99.90
69418;DHT22;56610;48.872;2.400;2023-04-24T06:08:46;13.30;99.90
69418;DHT22;56610;48.872;2.400;2023-04-24T06:11:11;13.50;99.90
69418;DHT22;56610;48.872;2.400;2023-04-24T06:13:37;13.30;99.90
69418;DHT22;56610;48.872;2.400;2023-04-24T06:16:03;13.50;99.90
69418;DHT22;56610;48.872;2.400;2023-04-24T06:18:28;13.50;99.90
69418;DHT22;56610;48.872;2.400;2023-04-24T06:20:54;13.60;99.90
69418;DHT22;56610;48.872;2.400;2023-04-24T06:23:20;13.50;99.90
69418;DHT22;56610;48.872;2.400;2023-04-24T06:25:46;13.40;99.90
69418;DHT22;56610;48.872;2.400;2023-04-24T06:28:12;13.40;99.90
69418;DHT22;56610;48.872;2.400;2023-04-24T06:30:38;13.20;99.90
69418;DHT22;56610;48.872;2.400;2023-04-24T06:33:03;13.20;99.90
69418;DHT22;56610;48.872;2.400;2023-04-24T06:35:29;13.40;99.90
69418;DHT22;56610;48.872;2.400;2023-04-24T06:37:55;13.50;99.90
69418;DHT22;56610;48.872;2.400;2023-04-24T06:40:21;13.50;99.90
69418;DHT22;56610;48.872;2.400;2023-04-24T06:42:47;13.60;99.90
69418;DHT22;56610;48.872;2.400;2023-04-24T06:45:13;13.50;99.90
69418;DHT22;56610;48.872;2.400;2023-04-24T06:47:38;13.40;99.90
69418;DHT22;56610;48.872;2.400;2023-04-24T06:50:04;13.40;99.90
69418;DHT22;56610;48.872;2.400;2023-04-24T06:52:30;13.50;99.90
69418;DHT22;56610;48.872;2.400;2023-04-24T06:55:03;13.40;99.90
69418;DHT22;56610;48.872;2.400;2023-04-24T06:57:29;13.20;99.90
69418;DHT22;56610;48.872;2.400;2023-04-24T06:59:55;13.20;99.90
69418;DHT22;56610;48.872;2.400;2023-04-24T07:02:20;13.40;99.90
69418;DHT22;56610;48.872;2.400;2023-04-24T07:04:46;13.50;99.90
69418;DHT22;56610;48.872;2.400;2023-04-24T07:07:13;13.60;99.90
69418;DHT22;56610;48.872;2.400;2023-04-24T07:09:42;13.70;99.90
69418;DHT22;56610;48.872;2.400;2023-04-24T07:12:08;13.80;99.90
69418;DHT22;56610;48.872;2.400;2023-04-24T07:14:36;14.00;99.90
69418;DHT22;56610;48.872;2.400;2023-04-24T07:17:03;14.00;99.90
69418;DHT22;56610;48.872;2.400;2023-04-24T07:19:29;14.00;99.90
69418;DHT22;56610;48.872;2.400;2023-04-24T07:21:54;14.10;99.90
69418;DHT22;56610;48.872;2.400;2023-04-24T07:24:20;14.10;99.90
69418;DHT22;56610;48.872;2.400;2023-04-24T07:26:46;14.00;99.90
69418;DHT22;56610;48.872;2.400;2023-04-24T07:29:12;14.00;99.90
69418;DHT22;56610;48.872;2.400;2023-04-24T07:31:39;14.10;99.90
69418;DHT22;56610;48.872;2.400;2023-04-24T07:34:06;14.20;99.90
69418;DHT22;56610;48.872;2.400;2023-04-24T07:36:32;13.90;99.90
69418;DHT22;56610;48.872;2.400;2023-04-24T07:38:57;13.70;99.90
69418;DHT22;56610;48.872;2.400;2023-04-24T07:41:23;13.80;99.90
69418;DHT22;56610;48.872;2.400;2023-04-24T07:43:49;13.80;99.90
69418;DHT22;56610;48.872;2.400;2023-04-24T07:46:15;13.70;99.90
69418;DHT22;56610;48.872;2.400;2023-04-24T07:48:41;13.60;99.90
69418;DHT22;56610;48.872;2.400;2023-04-24T07:51:06;13.60;99.90
69418;DHT22;56610;48.872;2.400;2023-04-24T07:53:32;13.50;99.90
69418;DHT22;56610;48.872;2.400;2023-04-24T07:55:57;13.70;99.90
69418;DHT22;56610;48.872;2.400;2023-04-24T07:58:23;13.80;99.90
69418;DHT22;56610;48.872;2.400;2023-04-24T08:00:49;13.90;99.90
69418;DHT22;56610;48.872;2.400;2023-04-24T08:03:14;13.90;99.90
69418;DHT22;56610;48.872;2.400;2023-04-24T08:05:43;14.00;99.90
69418;DHT22;56610;48.872;2.400;2023-04-24T08:08:09;14.20;99.90
69418;DHT22;56610;48.872;2.400;2023-04-24T08:10:38;14.30;99.90
69418;DHT22;56610;48.872;2.400;2023-04-24T08:13:04;14.30;99.90
69418;DHT22;56610;48.872;2.400;2023-04-24T08:15:29;14.10;99.90
69418;DHT22;56610;48.872;2.400;2023-04-24T08:17:55;14.00;99.90
69418;DHT22;56610;48.872;2.400;2023-04-24T08:20:21;14.00;99.90
69418;DHT22;56610;48.872;2.400;2023-04-24T08:22:46;14.10;99.90
69418;DHT22;56610;48.872;2.400;2023-04-24T08:25:14;14.00;99.90
69418;DHT22;56610;48.872;2.400;2023-04-24T08:27:39;13.90;99.90
69418;DHT22;56610;48.872;2.400;2023-04-24T08:30:06;13.90;99.90
69418;DHT22;56610;48.872;2.400;2023-04-24T08:32:31;13.90;99.90
69418;DHT22;56610;48.872;2.400;2023-04-24T08:34:58;14.00;99.90
69418;DHT22;56610;48.872;2.400;2023-04-24T08:37:26;14.10;99.90
69418;DHT22;56610;48.872;2.400;2023-04-24T08:39:52;14.00;99.90
69418;DHT22;56610;48.872;2.400;2023-04-24T08:42:19;14.20;99.90
69418;DHT22;56610;48.872;2.400;2023-04-24T08:44:46;14.20;99.90
69418;DHT22;56610;48.872;2.400;2023-04-24T08:47:13;14.20;99.90
69418;DHT22;56610;48.872;2.400;2023-04-24T08:49:40;14.10;99.90
69418;DHT22;56610;48.872;2.400;2023-04-24T08:52:05;14.40;99.90
69418;DHT22;56610;48.872;2.400;2023-04-24T08:54:32;14.40;99.90
69418;DHT22;56610;48.872;2.400;2023-04-24T08:57:00;14.40;99.90
69418;DHT22;56610;48.872;2.400;2023-04-24T08:59:31;14.30;99.90
69418;DHT22;56610;48.872;2.400;2023-04-24T09:01:59;14.10;99.90
69418;DHT22;56610;48.872;2.400;2023-04-24T09:04:25;14.20;99.90
69418;DHT22;56610;48.872;2.400;2023-04-24T09:06:55;14.20;99.90
69418;DHT22;56610;48.872;2.400;2023-04-24T09:09:21;14.20;99.90
69418;DHT22;56610;48.872;2.400;2023-04-24T09:11:49;14.30;99.90
69418;DHT22;56610;48.872;2.400;2023-04-24T09:14:16;14.40;99.90
69418;DHT22;56610;48.872;2.400;2023-04-24T09:16:42;14.50;99.90
69418;DHT22;56610;48.872;2.400;2023-04-24T09:19:08;14.60;99.90
69418;DHT22;56610;48.872;2.400;2023-04-24T09:21:34;14.80;99.90
69418;DHT22;56610;48.872;2.400;2023-04-24T09:24:05;14.80;99.90
69418;DHT22;56610;48.872;2.400;2023-04-24T09:26:35;14.70;99.90
69418;DHT22;56610;48.872;2.400;2023-04-24T09:29:01;14.60;99.90
69418;DHT22;56610;48.872;2.400;2023-04-24T09:31:29;14.50;99.90
69418;DHT22;56610;48.872;2.400;2023-04-24T09:33:58;14.50;99.90
69418;DHT22;56610;48.872;2.400;2023-04-24T09:36:29;14.40;99.90
69418;DHT22;56610;48.872;2.400;2023-04-24T09:38:58;14.30;99.90
69418;DHT22;56610;48.872;2.400;2023-04-24T09:41:24;14.30;99.90
69418;DHT22;56610;48.872;2.400;2023-04-24T09:43:49;14.30;99.90
69418;DHT22;56610;48.872;2.400;2023-04-24T09:46:18;14.30;99.90
69418;DHT22;56610;48.872;2.400;2023-04-24T09:48:44;14.20;99.90
69418;DHT22;56610;48.872;2.400;2023-04-24T09:51:09;14.30;99.90
69418;DHT22;56610;48.872;2.400;2023-04-24T09:53:38;14.40;99.90
69418;DHT22;56610;48.872;2.400;2023-04-24T09:56:08;14.70;99.90
69418;DHT22;56610;48.872;2.400;2023-04-24T09:58:35;14.60;99.90
69418;DHT22;56610;48.872;2.400;2023-04-24T10:01:01;14.70;99.90
69418;DHT22;56610;48.872;2.400;2023-04-24T10:03:30;14.80;99.90
69418;DHT22;56610;48.872;2.400;2023-04-24T10:05:59;14.80;99.90
69418;DHT22;56610;48.872;2.400;2023-04-24T10:08:25;14.80;99.90
69418;DHT22;56610;48.872;2.400;2023-04-24T10:10:52;14.90;99.90
69418;DHT22;56610;48.872;2.400;2023-04-24T10:13:18;14.90;99.90
69418;DHT22;56610;48.872;2.400;2023-04-24T10:15:44;14.80;99.90
69418;DHT22;56610;48.872;2.400;2023-04-24T10:18:11;14.90;99.90
69418;DHT22;56610;48.872;2.400;2023-04-24T10:20:38;15.00;99.90
69418;DHT22;56610;48.872;2.400;2023-04-24T10:23:04;14.90;99.90
69418;DHT22;56610;48.872;2.400;2023-04-24T10:25:32;15.00;99.90
69418;DHT22;56610;48.872;2.400;2023-04-24T10:27:59;15.10;99.90
69418;DHT22;56610;48.872;2.400;2023-04-24T10:30:31;15.30;99.90
69418;DHT22;56610;48.872;2.400;2023-04-24T10:33:01;15.30;99.90
69418;DHT22;56610;48.872;2.400;2023-04-24T10:35:26;15.40;99.90
69418;DHT22;56610;48.872;2.400;2023-04-24T10:40:34;15.30;99.90
69418;DHT22;56610;48.872;2.400;2023-04-24T10:43:03;15.40;99.90
69418;DHT22;56610;48.872;2.400;2023-04-24T10:45:31;15.50;99.90
69418;DHT22;56610;48.872;2.400;2023-04-24T10:47:59;15.50;99.90
69418;DHT22;56610;48.872;2.400;2023-04-24T10:50:46;15.60;99.90
69418;DHT22;56610;48.872;2.400;2023-04-24T10:53:22;15.60;99.90
69418;DHT22;56610;48.872;2.400;2023-04-24T10:56:06;15.70;99.90
69418;DHT22;56610;48.872;2.400;2023-04-24T10:58:39;15.60;99.90
69418;DHT22;56610;48.872;2.400;2023-04-24T11:01:05;15.70;99.90
69418;DHT22;56610;48.872;2.400;2023-04-24T11:03:33;15.50;99.90
69418;DHT22;56610;48.872;2.400;2023-04-24T11:06:08;15.60;99.90
69418;DHT22;56610;48.872;2.400;2023-04-24T11:08:40;15.60;99.90
69418;DHT22;56610;48.872;2.400;2023-04-24T11:11:16;15.60;99.90
69418;DHT22;56610;48.872;2.400;2023-04-24T11:16:31;15.70;99.90
69418;DHT22;56610;48.872;2.400;2023-04-24T11:24:31;15.80;99.90
69418;DHT22;56610;48.872;2.400;2023-04-24T11:32:30;16.40;99.90
69418;DHT22;56610;48.872;2.400;2023-04-24T11:35:13;16.50;99.90
69418;DHT22;56610;48.872;2.400;2023-04-24T11:37:41;16.60;99.90
69418;DHT22;56610;48.872;2.400;2023-04-24T11:40:09;16.40;99.90
69418;DHT22;56610;48.872;2.400;2023-04-24T11:42:36;16.30;99.90
69418;DHT22;56610;48.872;2.400;2023-04-24T11:45:02;16.30;99.90
69418;DHT22;56610;48.872;2.400;2023-04-24T11:47:32;16.30;99.90
69418;DHT22;56610;48.872;2.400;2023-04-24T11:50:02;16.20;99.90
69418;DHT22;56610;48.872;2.400;2023-04-24T11:52:32;16.20;99.90
69418;DHT22;56610;48.872;2.400;2023-04-24T11:54:59;16.20;99.90
69418;DHT22;56610;48.872;2.400;2023-04-24T11:57:25;16.10;99.90
69418;DHT22;56610;48.872;2.400;2023-04-24T12:00:02;16.10;99.90
69418;DHT22;56610;48.872;2.400;2023-04-24T12:02:28;16.20;99.90
69418;DHT22;56610;48.872;2.400;2023-04-24T12:04:54;16.30;99.90
69418;DHT22;56610;48.872;2.400;2023-04-24T12:07:21;16.50;99.90
69418;DHT22;56610;48.872;2.400;2023-04-24T12:09:55;16.70;99.90
69418;DHT22;56610;48.872;2.400;2023-04-24T12:12:20;16.80;99.90
69418;DHT22;56610;48.872;2.400;2023-04-24T12:14:54;17.10;99.90
69418;DHT22;56610;48.872;2.400;2023-04-24T12:17:31;17.20;99.90
69418;DHT22;56610;48.872;2.400;2023-04-24T12:19:59;17.40;99.90
69418;DHT22;56610;48.872;2.400;2023-04-24T12:22:25;17.70;99.90
69418;DHT22;56610;48.872;2.400;2023-04-24T12:24:58;17.80;99.90
69418;DHT22;56610;48.872;2.400;2023-04-24T12:27:24;17.70;99.90
69418;DHT22;56610;48.872;2.400;2023-04-24T12:29:52;17.50;99.90
69418;DHT22;56610;48.872;2.400;2023-04-24T12:32:18;17.30;99.90
69418;DHT22;56610;48.872;2.400;2023-04-24T12:34:44;17.10;99.90
69418;DHT22;56610;48.872;2.400;2023-04-24T12:37:11;17.10;99.90
69418;DHT22;56610;48.872;2.400;2023-04-24T12:39:37;17.10;99.90
69418;DHT22;56610;48.872;2.400;2023-04-24T12:42:03;16.90;99.90
69418;DHT22;56610;48.872;2.400;2023-04-24T12:44:32;16.90;99.90
69418;DHT22;56610;48.872;2.400;2023-04-24T12:47:00;17.00;99.90
69418;DHT22;56610;48.872;2.400;2023-04-24T12:49:27;17.00;99.90
69418;DHT22;56610;48.872;2.400;2023-04-24T12:51:53;16.80;99.90
69418;DHT22;56610;48.872;2.400;2023-04-24T12:54:18;16.70;99.90
69418;DHT22;56610;48.872;2.400;2023-04-24T12:56:44;16.70;99.90
69418;DHT22;56610;48.872;2.400;2023-04-24T12:59:09;16.60;99.90
69418;DHT22;56610;48.872;2.400;2023-04-24T13:01:35;16.40;99.90
69418;DHT22;56610;48.872;2.400;2023-04-24T13:04:01;16.30;99.90
69418;DHT22;56610;48.872;2.400;2023-04-24T13:06:26;16.20;99.90
69418;DHT22;56610;48.872;2.400;2023-04-24T13:08:52;16.00;99.90
69418;DHT22;56610;48.872;2.400;2023-04-24T13:11:17;16.00;99.90
69418;DHT22;56610;48.872;2.400;2023-04-24T13:13:43;15.90;99.90
69418;DHT22;56610;48.872;2.400;2023-04-24T13:16:09;16.00;99.90
69418;DHT22;56610;48.872;2.400;2023-04-24T13:18:34;15.90;99.90
69418;DHT22;56610;48.872;2.400;2023-04-24T13:21:00;16.00;99.90
69418;DHT22;56610;48.872;2.400;2023-04-24T13:23:26;16.10;99.90
69418;DHT22;56610;48.872;2.400;2023-04-24T13:25:51;16.10;99.90
69418;DHT22;56610;48.872;2.400;2023-04-24T13:28:17;15.90;99.90
69418;DHT22;56610;48.872;2.400;2023-04-24T13:30:43;15.90;99.90
69418;DHT22;56610;48.872;2.400;2023-04-24T13:33:09;15.80;99.90
69418;DHT22;56610;48.872;2.400;2023-04-24T13:35:34;15.80;99.90
69418;DHT22;56610;48.872;2.400;2023-04-24T13:38:00;15.90;99.90
69418;DHT22;56610;48.872;2.400;2023-04-24T13:40:27;15.70;99.90
69418;DHT22;56610;48.872;2.400;2023-04-24T13:42:52;15.80;99.90
69418;DHT22;56610;48.872;2.400;2023-04-24T13:45:18;15.80;99.90
69418;DHT22;56610;48.872;2.400;2023-04-24T13:47:43;15.70;99.90
69418;DHT22;56610;48.872;2.400;2023-04-24T13:50:10;15.70;99.90
69418;DHT22;56610;48.872;2.400;2023-04-24T13:52:35;15.80;99.90
69418;DHT22;56610;48.872;2.400;2023-04-24T13:55:01;15.70;99.90
69418;DHT22;56610;48.872;2.400;2023-04-24T13:57:26;15.70;99.90
69418;DHT22;56610;48.872;2.400;2023-04-24T13:59:53;15.80;99.90
69418;DHT22;56610;48.872;2.400;2023-04-24T14:02:21;15.90;99.90
69418;DHT22;56610;48.872;2.400;2023-04-24T14:04:46;16.00;99.90
69418;DHT22;56610;48.872;2.400;2023-04-24T14:07:13;16.10;99.90
69418;DHT22;56610;48.872;2.400;2023-04-24T14:09:39;16.10;99.90
69418;DHT22;56610;48.872;2.400;2023-04-24T14:12:04;16.20;99.90
69418;DHT22;56610;48.872;2.400;2023-04-24T14:14:31;16.30;99.90
69418;DHT22;56610;48.872;2.400;2023-04-24T14:16:57;16.40;99.90
69418;DHT22;56610;48.872;2.400;2023-04-24T14:19:22;16.40;99.90
69418;DHT22;56610;48.872;2.400;2023-04-24T14:21:48;16.40;99.90
69418;DHT22;56610;48.872;2.400;2023-04-24T14:24:14;16.30;99.90
69418;DHT22;56610;48.872;2.400;2023-04-24T14:26:39;16.30;99.90
69418;DHT22;56610;48.872;2.400;2023-04-24T14:29:05;16.30;99.90
69418;DHT22;56610;48.872;2.400;2023-04-24T14:31:31;16.30;99.90
69418;DHT22;56610;48.872;2.400;2023-04-24T14:33:56;16.40;99.90
69418;DHT22;56610;48.872;2.400;2023-04-24T14:36:23;16.50;99.90
69418;DHT22;56610;48.872;2.400;2023-04-24T14:38:49;16.70;99.90
69418;DHT22;56610;48.872;2.400;2023-04-24T14:41:15;17.00;99.90
69418;DHT22;56610;48.872;2.400;2023-04-24T14:43:40;17.10;99.90
69418;DHT22;56610;48.872;2.400;2023-04-24T14:46:06;17.00;99.90
69418;DHT22;56610;48.872;2.400;2023-04-24T14:48:32;17.00;99.90
69418;DHT22;56610;48.872;2.400;2023-04-24T14:50:58;17.00;99.90
69418;DHT22;56610;48.872;2.400;2023-04-24T14:53:23;17.10;99.90
69418;DHT22;56610;48.872;2.400;2023-04-24T14:55:49;17.30;99.90
69418;DHT22;56610;48.872;2.400;2023-04-24T14:58:15;17.40;99.10
69418;DHT22;56610;48.872;2.400;2023-04-24T15:00:40;17.30;98.80
69418;DHT22;56610;48.872;2.400;2023-04-24T15:03:06;17.30;99.10
69418;DHT22;56610;48.872;2.400;2023-04-24T15:05:32;17.30;98.40
69418;DHT22;56610;48.872;2.400;2023-04-24T15:07:58;17.20;99.20
69418;DHT22;56610;48.872;2.400;2023-04-24T15:10:23;17.10;98.60
69418;DHT22;56610;48.872;2.400;2023-04-24T15:12:50;17.10;99.20
69418;DHT22;56610;48.872;2.400;2023-04-24T15:15:16;17.00;99.20
69418;DHT22;56610;48.872;2.400;2023-04-24T15:17:42;17.00;99.90
69418;DHT22;56610;48.872;2.400;2023-04-24T15:20:08;16.90;99.90
69418;DHT22;56610;48.872;2.400;2023-04-24T15:22:34;16.70;99.90
69418;DHT22;56610;48.872;2.400;2023-04-24T15:24:59;16.60;99.90
69418;DHT22;56610;48.872;2.400;2023-04-24T15:27:26;16.50;99.90
69418;DHT22;56610;48.872;2.400;2023-04-24T15:29:51;16.30;99.90
69418;DHT22;56610;48.872;2.400;2023-04-24T15:32:18;16.20;99.90
69418;DHT22;56610;48.872;2.400;2023-04-24T15:34:44;16.10;99.90
69418;DHT22;56610;48.872;2.400;2023-04-24T15:37:10;16.20;99.90
69418;DHT22;56610;48.872;2.400;2023-04-24T15:39:35;16.20;99.90
69418;DHT22;56610;48.872;2.400;2023-04-24T15:42:02;16.20;99.90
69418;DHT22;56610;48.872;2.400;2023-04-24T15:44:27;16.40;99.90
69418;DHT22;56610;48.872;2.400;2023-04-24T15:46:53;16.30;99.90